Praesel, Texas
Current Conditions -  °F | °C
As of 11:55 PM on Wednesday 22 Oct 2014 (Local Time) from KT35 Reporting Station
Clear Clear  
Wind Chill: 68°   Ceiling: Unl
Heat Index: 68°   Visibility: 10mi
Dew Point: 59°   Wind: 5mph
Humidity: 73%   Direction: 120°ESE
Pressure: 30.1"   Gusts: NA
Location:  30.6499°N, 96.9973°W
Report Text: KT35 230455Z AUTO 12004KT 10SM CLR 20/15 A3010 RMK AO2 T01980149
Loading
Personal Weather Stations






























Interactive Weather Map
Tropical Storm Tracking
New forecast layout! Learn more

10-Day Weather Forecast

Advertisements
Track Severe Weather on mobile